Terminal Aerodrome Forecast
Issued by NWS

Home | Current Version | Previous Version | Text Only | Print | Product List | Glossary On
Versions: 1 2 3 4 5 6 7 8 9 10 11 12 13 14 15 16 17 18 19 20 21 22 23 24
887
FTUS43 KGRB 212329
TAFCWA
TAF
KCWA 212329Z 2200/2224 14004KT 1/2SM -DZ FG OVC003
      TEMPO 2200/2203 1/4SM FG OVC002
     FM220300 21003KT 1/4SM -DZ FG OVC001
     FM221600 00000KT 1/2SM FG OVC002
     FM221800 31004KT 3SM BR OVC007=

USA.gov is the U.S. government's official web portal to all federal, state and local government web resources and services.